Time;durP1;ratioP1;P1;durP2;ratioP2;P2;SDS_P1;SDS_P2;PMS_P1;PMS_P2;Temp;Humidity;BMP_temperature;BMP_pressure;BME280_temperature;BME280_humidity;BME280_pressure;Samples;Min_cycle;Max_cycle;Signal;HPM_P1;HPM_P2
2021/07/01 00:01:53;;;;;;;50.45;24.27;;;13.80;99.90;;;;;;4964796;28;20534;-80
2021/07/01 00:04:22;;;;;;;51.72;24.17;;;13.70;99.90;;;;;;4982424;28;20073;-82
2021/07/01 00:06:48;;;;;;;53.45;24.00;;;13.80;99.90;;;;;;4977530;28;20065;-82
2021/07/01 00:09:18;;;;;;;46.75;22.75;;;13.70;99.90;;;;;;4976582;28;20110;-79
2021/07/01 00:11:47;;;;;;;40.83;22.00;;;13.70;99.90;;;;;;4976732;28;20046;-79
2021/07/01 00:14:16;;;;;;;44.30;21.25;;;13.60;99.90;;;;;;4963107;28;20046;-81
2021/07/01 00:16:44;;;;;;;37.35;19.42;;;13.60;99.90;;;;;;5012471;28;20038;-81
2021/07/01 00:19:11;;;;;;;37.90;19.17;;;13.60;99.90;;;;;;4975570;28;20074;-80
2021/07/01 00:21:37;;;;;;;43.97;20.15;;;13.50;99.90;;;;;;4999515;28;20042;-80
2021/07/01 00:24:05;;;;;;;41.42;21.23;;;13.50;99.90;;;;;;4970310;28;20057;-79
2021/07/01 00:26:31;;;;;;;35.72;19.98;;;13.50;99.90;;;;;;4965515;28;20050;-82
2021/07/01 00:28:58;;;;;;;34.10;19.05;;;13.40;99.90;;;;;;5002050;28;20042;-78
2021/07/01 00:31:25;;;;;;;38.83;20.60;;;13.50;99.90;;;;;;4983544;28;20081;-81
2021/07/01 00:33:52;;;;;;;36.20;19.40;;;13.50;99.90;;;;;;4973950;28;20031;-80
2021/07/01 00:36:19;;;;;;;37.50;19.05;;;13.50;99.90;;;;;;4977026;28;20046;-81
2021/07/01 00:38:49;;;;;;;31.00;18.25;;;13.40;99.90;;;;;;4976571;28;20026;-79
2021/07/01 00:41:16;;;;;;;31.88;18.63;;;13.30;99.90;;;;;;5018983;28;20118;-80
2021/07/01 00:43:43;;;;;;;34.13;18.95;;;13.40;99.90;;;;;;4958357;28;20687;-79
2021/07/01 00:46:10;;;;;;;39.03;20.92;;;13.30;99.90;;;;;;4963051;28;20046;-80
2021/07/01 00:48:38;;;;;;;52.63;25.20;;;13.30;99.90;;;;;;4964866;28;20050;-79
2021/07/01 00:51:05;;;;;;;50.03;24.67;;;13.30;99.90;;;;;;4973631;28;20050;-80
2021/07/01 00:53:32;;;;;;;53.45;24.65;;;13.20;99.90;;;;;;4972530;28;20054;-78
2021/07/01 00:56:01;;;;;;;37.53;20.10;;;13.20;99.90;;;;;;4963561;28;20054;-82
2021/07/01 00:58:29;;;;;;;44.85;22.80;;;13.20;99.90;;;;;;4989934;28;20700;-80
2021/07/01 01:01:02;;;;;;;37.85;21.52;;;13.10;99.90;;;;;;4963457;28;20057;-80
2021/07/01 01:03:36;;;;;;;32.10;18.17;;;13.10;99.90;;;;;;4961351;28;20101;-80
2021/07/01 01:06:04;;;;;;;39.40;21.83;;;13.20;99.90;;;;;;4992602;28;20047;-81
2021/07/01 01:08:36;;;;;;;36.28;20.98;;;13.20;99.90;;;;;;5002290;28;20057;-81
2021/07/01 01:11:03;;;;;;;36.22;18.75;;;13.10;99.90;;;;;;4975022;28;20078;-81
2021/07/01 01:13:44;;;;;;;33.45;18.77;;;13.10;99.90;;;;;;4996207;28;20417;-79
2021/07/01 01:16:30;;;;;;;36.10;19.50;;;13.10;99.90;;;;;;4963846;28;20062;-78
2021/07/01 01:18:58;;;;;;;31.70;18.73;;;13.10;99.90;;;;;;4976124;28;20093;-78
2021/07/01 01:21:27;;;;;;;39.20;20.95;;;13.00;99.90;;;;;;4958896;28;20070;-79
2021/07/01 01:23:55;;;;;;;40.70;20.73;;;13.00;99.90;;;;;;4966691;28;20046;-79
2021/07/01 01:26:23;;;;;;;38.47;20.70;;;13.00;99.90;;;;;;4958600;28;20146;-79
2021/07/01 01:28:51;;;;;;;36.28;21.02;;;12.90;99.90;;;;;;5010983;28;20069;-79
2021/07/01 01:31:19;;;;;;;43.45;20.88;;;12.90;99.90;;;;;;4960962;28;20042;-79
2021/07/01 01:33:49;;;;;;;40.13;20.88;;;13.00;99.90;;;;;;4990472;28;20074;-77
2021/07/01 01:36:16;;;;;;;41.28;24.02;;;13.00;99.90;;;;;;5002151;28;20054;-80
2021/07/01 01:38:46;;;;;;;38.90;21.88;;;13.00;99.90;;;;;;4984470;28;20046;-80
2021/07/01 01:41:27;;;;;;;43.63;22.60;;;13.00;99.90;;;;;;4986168;28;20146;-79
2021/07/01 01:43:55;;;;;;;42.40;24.55;;;12.90;99.90;;;;;;4959212;28;20125;-80
2021/07/01 01:46:23;;;;;;;47.75;25.65;;;12.90;99.90;;;;;;4958037;28;20045;-80
2021/07/01 01:48:52;;;;;;;40.88;24.20;;;12.90;99.90;;;;;;4979604;28;20089;-80
2021/07/01 01:51:21;;;;;;;43.15;24.80;;;12.80;99.90;;;;;;4985385;28;20070;-80
2021/07/01 01:53:53;;;;;;;40.53;25.42;;;12.80;99.90;;;;;;4952986;28;20054;-81
2021/07/01 01:56:20;;;;;;;44.55;24.02;;;12.80;99.90;;;;;;4949551;28;20643;-81
2021/07/01 01:58:49;;;;;;;42.08;23.95;;;12.70;99.90;;;;;;4967976;28;20044;-80
2021/07/01 02:01:54;;;;;;;46.33;25.10;;;12.70;99.90;;;;;;4959218;28;20043;-80
2021/07/01 02:04:34;;;;;;;39.97;23.15;;;12.70;99.90;;;;;;4954914;28;20151;-78
2021/07/01 02:07:00;;;;;;;38.25;20.80;;;12.60;99.90;;;;;;4982865;28;20348;-80
2021/07/01 02:09:46;;;;;;;37.85;20.13;;;12.60;99.90;;;;;;4987369;28;20031;-82
2021/07/01 02:12:13;;;;;;;37.70;23.23;;;12.60;99.90;;;;;;4988939;28;20535;-82
2021/07/01 02:14:41;;;;;;;37.80;22.90;;;12.70;99.90;;;;;;4962971;28;20537;-81
2021/07/01 02:17:16;;;;;;;45.22;25.38;;;12.70;99.90;;;;;;4976639;28;20102;-79
2021/07/01 02:19:44;;;;;;;49.65;23.70;;;12.70;99.90;;;;;;4993196;28;20422;-79
2021/07/01 02:22:11;;;;;;;48.00;26.17;;;12.60;99.90;;;;;;4959946;28;20042;-80
2021/07/01 02:24:40;;;;;;;40.03;23.75;;;12.60;99.90;;;;;;4964334;28;20082;-79
2021/07/01 02:27:08;;;;;;;49.60;25.25;;;12.50;99.90;;;;;;4949744;28;20768;-80
2021/07/01 02:29:38;;;;;;;42.50;25.90;;;12.60;99.90;;;;;;4965042;28;20050;-79
2021/07/01 02:32:08;;;;;;;41.50;26.05;;;12.60;99.90;;;;;;4994986;28;20042;-80
2021/07/01 02:34:40;;;;;;;48.53;25.98;;;12.70;99.90;;;;;;4963799;28;20062;-79
2021/07/01 02:37:19;;;;;;;50.88;26.88;;;12.60;99.90;;;;;;5009567;28;20045;-79
2021/07/01 02:39:55;;;;;;;47.63;26.58;;;12.60;99.90;;;;;;4964128;28;20050;-81
2021/07/01 02:42:22;;;;;;;50.83;25.48;;;12.60;99.90;;;;;;4962123;28;20655;-79
2021/07/01 02:44:50;;;;;;;59.58;27.73;;;12.70;99.90;;;;;;4962726;28;20101;-79
2021/07/01 02:47:35;;;;;;;52.53;24.90;;;12.70;99.90;;;;;;4990468;28;20047;-80
2021/07/01 02:50:05;;;;;;;46.00;19.90;;;12.60;99.90;;;;;;4996985;28;20085;-80
2021/07/01 02:52:35;;;;;;;43.85;22.77;;;12.60;99.90;;;;;;4962596;28;20136;-80
2021/07/01 02:55:07;;;;;;;38.28;19.58;;;12.60;99.90;;;;;;4961517;28;20046;-79
2021/07/01 02:57:35;;;;;;;39.45;20.02;;;12.50;99.90;;;;;;4963758;28;20091;-79
2021/07/01 03:00:11;;;;;;;37.55;21.05;;;12.60;99.90;;;;;;4978331;28;20053;-80
2021/07/01 03:02:42;;;;;;;53.05;22.55;;;12.60;99.90;;;;;;4978932;28;20096;-81
2021/07/01 03:05:19;;;;;;;43.33;21.08;;;12.50;99.90;;;;;;4965757;28;20058;-81
2021/07/01 03:07:46;;;;;;;33.00;18.67;;;12.60;99.90;;;;;;4979961;28;20530;-82
2021/07/01 03:10:14;;;;;;;37.70;20.77;;;12.60;99.90;;;;;;4983040;28;20057;-80
2021/07/01 03:13:01;;;;;;;38.53;17.80;;;12.60;99.90;;;;;;4993997;28;20096;-80
2021/07/01 03:15:29;;;;;;;40.05;20.15;;;12.50;99.90;;;;;;4979214;28;20046;-80
2021/07/01 03:17:56;;;;;;;36.47;17.98;;;12.50;99.90;;;;;;4995944;28;20046;-81
2021/07/01 03:20:43;;;;;;;32.05;17.30;;;12.50;99.90;;;;;;4977945;28;20125;-80
2021/07/01 03:23:33;;;;;;;33.60;17.27;;;12.50;99.90;;;;;;4967764;28;20712;-80
2021/07/01 03:26:01;;;;;;;36.00;18.05;;;12.50;99.90;;;;;;4978438;28;20658;-81
2021/07/01 03:28:29;;;;;;;34.75;17.30;;;12.40;99.90;;;;;;4973636;28;20050;-81
2021/07/01 03:30:56;;;;;;;37.72;17.85;;;12.40;99.90;;;;;;4973947;28;20510;-79
2021/07/01 03:33:23;;;;;;;32.40;17.90;;;12.40;99.90;;;;;;4954957;28;20060;-80
2021/07/01 03:35:51;;;;;;;36.55;18.65;;;12.40;99.90;;;;;;4970807;28;20065;-81
2021/07/01 03:38:34;;;;;;;37.25;18.25;;;12.50;99.90;;;;;;4983145;28;20042;-81
2021/07/01 03:41:25;;;;;;;39.83;18.88;;;12.50;99.90;;;;;;4980217;28;20092;-83
2021/07/01 03:43:53;;;;;;;47.40;19.83;;;12.60;99.90;;;;;;4977691;28;20136;-81
2021/07/01 03:46:21;;;;;;;31.40;13.75;;;12.60;99.90;;;;;;4978985;28;20255;-83
2021/07/01 03:48:48;;;;;;;31.30;14.00;;;12.60;99.90;;;;;;4977643;28;20066;-85
2021/07/01 03:51:41;;;;;;;26.60;13.15;;;12.70;99.90;;;;;;4962078;28;20062;-81
2021/07/01 03:54:35;;;;;;;30.20;13.88;;;12.60;99.90;;;;;;4983459;28;20053;-82
2021/07/01 03:57:10;;;;;;;37.60;16.05;;;12.70;99.90;;;;;;4948041;28;20086;-84
2021/07/01 03:59:47;;;;;;;27.77;14.13;;;12.70;99.90;;;;;;4952215;28;20073;-81
2021/07/01 04:02:32;;;;;;;;;;;12.50;99.90;;;;;;4992469;28;20042;-82
2021/07/01 04:05:04;;;;;;;33.20;17.70;;;12.50;99.90;;;;;;4996010;28;20032;-81
2021/07/01 04:07:31;;;;;;;38.47;20.50;;;12.50;99.90;;;;;;4963008;28;20046;-85
2021/07/01 04:10:05;;;;;;;43.40;20.38;;;12.50;99.90;;;;;;4962364;28;20050;-82
2021/07/01 04:12:48;;;;;;;38.28;21.15;;;12.60;99.90;;;;;;4992844;28;20047;-82
2021/07/01 04:15:30;;;;;;;46.05;23.75;;;12.50;99.90;;;;;;4976816;28;20057;-83
2021/07/01 04:18:17;;;;;;;50.47;24.60;;;12.50;99.90;;;;;;4978290;28;20042;-83
2021/07/01 04:21:11;;;;;;;49.80;24.95;;;12.50;99.90;;;;;;4957310;28;20697;-80
2021/07/01 04:23:57;;;;;;;62.42;27.27;;;12.50;99.90;;;;;;4979547;28;20550;-82
2021/07/01 04:26:43;;;;;;;55.22;27.48;;;12.50;99.90;;;;;;4974140;28;20655;-84
2021/07/01 04:29:15;;;;;;;58.33;27.83;;;12.50;99.90;;;;;;4958046;28;20510;-82
2021/07/01 04:31:43;;;;;;;52.13;26.88;;;12.50;99.90;;;;;;4990550;28;20061;-80
2021/07/01 04:34:10;;;;;;;45.38;23.30;;;12.40;99.90;;;;;;4987489;28;20062;-83
2021/07/01 04:36:37;;;;;;;43.47;22.88;;;12.40;99.90;;;;;;4977611;28;20501;-80
2021/07/01 04:39:09;;;;;;;45.75;22.38;;;12.40;99.90;;;;;;4982615;28;20049;-81
2021/07/01 04:41:57;;;;;;;50.47;23.95;;;12.50;99.90;;;;;;4986868;28;20808;-81
2021/07/01 04:44:25;;;;;;;54.65;24.25;;;12.40;99.90;;;;;;4950945;28;20644;-83
2021/07/01 04:46:53;;;;;;;55.75;25.63;;;12.50;99.90;;;;;;4956089;28;20050;-81
2021/07/01 04:49:20;;;;;;;47.15;24.23;;;12.50;99.90;;;;;;4959790;28;20430;-82
2021/07/01 04:52:16;;;;;;;57.72;26.25;;;12.50;99.90;;;;;;4955693;28;20035;-82
2021/07/01 04:55:04;;;;;;;51.67;26.10;;;12.50;99.90;;;;;;4976333;28;20046;-83
2021/07/01 04:57:50;;;;;;;52.45;25.67;;;12.50;99.90;;;;;;4970643;28;20100;-84
2021/07/01 05:00:17;;;;;;;62.33;28.60;;;12.40;99.90;;;;;;4984676;28;20061;-81
2021/07/01 05:03:03;;;;;;;58.65;27.48;;;12.50;99.90;;;;;;4975943;28;20050;-81
2021/07/01 05:05:35;;;;;;;51.08;27.00;;;12.50;99.90;;;;;;4944091;28;20047;-81
2021/07/01 05:08:02;;;;;;;55.15;28.13;;;12.50;99.90;;;;;;5022608;28;20042;-83
2021/07/01 05:10:29;;;;;;;51.42;26.25;;;12.60;99.90;;;;;;5023500;28;20042;-81
2021/07/01 05:12:59;;;;;;;47.50;25.40;;;12.60;99.90;;;;;;4991623;28;20325;-82
2021/07/01 05:15:27;;;;;;;59.25;27.85;;;12.60;99.90;;;;;;4988698;28;20542;-82
2021/07/01 05:18:01;;;;;;;53.92;26.00;;;12.60;99.90;;;;;;4993372;28;20039;-81
2021/07/01 05:20:29;;;;;;;53.05;26.80;;;12.60;99.90;;;;;;4979365;28;20042;-83
2021/07/01 05:23:16;;;;;;;49.70;23.65;;;12.60;99.90;;;;;;4961124;28;20102;-82
2021/07/01 05:26:06;;;;;;;48.15;25.00;;;12.70;99.90;;;;;;4990648;28;20070;-82
2021/07/01 05:28:53;;;;;;;55.60;27.63;;;12.60;99.90;;;;;;5005450;28;20066;-83
2021/07/01 05:32:06;;;;;;;48.53;26.23;;;12.70;99.90;;;;;;4965865;28;20064;-82
2021/07/01 05:34:52;;;;;;;52.42;27.10;;;12.60;99.90;;;;;;4977310;28;20098;-82
2021/07/01 05:37:19;;;;;;;42.15;24.35;;;12.60;99.90;;;;;;4975047;28;20449;-81
2021/07/01 05:39:55;;;;;;;45.40;23.83;;;12.70;99.90;;;;;;4947269;28;20046;-83
2021/07/01 05:42:22;;;;;;;47.20;25.50;;;12.70;99.90;;;;;;4944980;28;20406;-81
2021/07/01 05:44:50;;;;;;;59.67;28.27;;;12.70;99.90;;;;;;4994402;28;20073;-79
2021/07/01 05:47:17;;;;;;;63.08;28.88;;;12.80;99.90;;;;;;4943642;28;20077;-82
2021/07/01 05:49:44;;;;;;;51.33;24.67;;;12.80;99.90;;;;;;4975190;28;20046;-83
2021/07/01 05:52:13;;;;;;;52.70;25.02;;;12.80;99.90;;;;;;4958874;28;20051;-82
2021/07/01 05:54:53;;;;;;;44.58;22.38;;;12.70;99.90;;;;;;4989210;28;20122;-81
2021/07/01 05:57:19;;;;;;;41.17;21.70;;;12.70;99.90;;;;;;4976735;28;20038;-82
2021/07/01 05:59:46;;;;;;;45.00;22.40;;;12.70;99.90;;;;;;4971458;28;20064;-82
2021/07/01 06:02:13;;;;;;;41.58;21.20;;;12.70;99.90;;;;;;4961552;28;20129;-82
2021/07/01 06:04:40;;;;;;;51.03;24.35;;;12.70;99.90;;;;;;4963117;28;20051;-83
2021/07/01 06:07:49;;;;;;;45.13;24.35;;;12.70;99.90;;;;;;4958161;28;20117;-79
2021/07/01 06:10:18;;;;;;;44.08;24.02;;;12.70;99.90;;;;;;4962338;28;20075;-80
2021/07/01 06:12:46;;;;;;;46.67;24.25;;;12.70;99.90;;;;;;4964500;28;20079;-80
2021/07/01 06:15:14;;;;;;;54.67;27.92;;;12.70;99.90;;;;;;4961765;28;20134;-82
2021/07/01 06:17:42;;;;;;;57.03;26.35;;;12.70;99.90;;;;;;4995093;28;20050;-81
2021/07/01 06:20:11;;;;;;;47.05;25.13;;;12.70;99.90;;;;;;4978927;28;20047;-81
2021/07/01 06:22:40;;;;;;;35.35;19.67;;;12.80;99.90;;;;;;4995143;28;20045;-82
2021/07/01 06:25:09;;;;;;;33.17;19.25;;;12.70;99.90;;;;;;4979131;28;20096;-80
2021/07/01 06:27:37;;;;;;;37.22;20.25;;;12.70;99.90;;;;;;4971775;28;20569;-84
2021/07/01 06:30:09;;;;;;;44.45;21.75;;;12.70;99.90;;;;;;5006474;28;20142;-83
2021/07/01 06:32:47;;;;;;;41.50;22.73;;;12.70;99.90;;;;;;4975953;28;20046;-84
2021/07/01 06:35:15;;;;;;;36.55;20.30;;;12.70;99.90;;;;;;4957770;28;20110;-82
2021/07/01 06:37:44;;;;;;;40.83;21.67;;;12.70;99.90;;;;;;4964148;28;20046;-84
2021/07/01 06:40:31;;;;;;;39.17;22.42;;;12.70;99.90;;;;;;4972563;28;20054;-82
2021/07/01 06:43:25;;;;;;;43.40;22.67;;;12.70;99.90;;;;;;4980995;28;20042;-82
2021/07/01 06:46:13;;;;;;;41.78;21.65;;;12.70;99.90;;;;;;5013133;28;20078;-82
2021/07/01 06:49:01;;;;;;;42.25;21.13;;;12.80;99.90;;;;;;4982656;28;20101;-84
2021/07/01 06:51:49;;;;;;;33.08;18.60;;;12.80;99.90;;;;;;4962765;28;20078;-80
2021/07/01 06:54:37;;;;;;;37.25;20.38;;;12.80;99.90;;;;;;4945060;28;20058;-83
2021/07/01 06:57:22;;;;;;;34.60;19.60;;;12.70;99.90;;;;;;4975167;28;20112;-82
2021/07/01 06:59:52;;;;;;;33.80;17.83;;;12.80;99.90;;;;;;4970125;28;20049;-82
2021/07/01 07:02:21;;;;;;;29.10;16.70;;;12.80;99.90;;;;;;4961034;28;20107;-81
2021/07/01 07:04:49;;;;;;;29.80;15.73;;;12.80;99.90;;;;;;4962093;28;20606;-81
2021/07/01 07:07:19;;;;;;;24.20;13.70;;;12.80;99.90;;;;;;5008171;28;20039;-82
2021/07/01 07:09:46;;;;;;;26.83;14.77;;;12.80;99.90;;;;;;4960586;28;20042;-81
2021/07/01 07:12:13;;;;;;;22.92;14.98;;;12.80;99.90;;;;;;4980288;28;20057;-83
2021/07/01 07:14:40;;;;;;;23.58;14.85;;;12.90;99.90;;;;;;4992398;28;20076;-80
2021/07/01 07:17:08;;;;;;;23.17;12.63;;;13.00;99.90;;;;;;4956669;28;20331;-80
2021/07/01 07:19:37;;;;;;;19.20;11.90;;;13.00;99.90;;;;;;4984194;28;20742;-83
2021/07/01 07:22:04;;;;;;;17.30;11.15;;;13.00;99.90;;;;;;4976732;28;20062;-83
2021/07/01 07:24:35;;;;;;;19.88;12.45;;;12.90;99.90;;;;;;4978626;28;20648;-80
2021/07/01 07:27:03;;;;;;;15.55;11.10;;;12.90;99.90;;;;;;4945363;28;20058;-82
2021/07/01 07:29:36;;;;;;;23.20;13.50;;;12.90;99.90;;;;;;4976139;28;20051;-83
2021/07/01 07:32:04;;;;;;;19.98;12.27;;;12.90;99.90;;;;;;4956286;28;20050;-81
2021/07/01 07:34:33;;;;;;;18.40;11.63;;;12.90;99.90;;;;;;4974550;28;20046;-84
2021/07/01 07:37:01;;;;;;;17.23;11.20;;;12.90;99.90;;;;;;4970037;28;20075;-81
2021/07/01 07:39:29;;;;;;;17.58;11.40;;;12.90;99.90;;;;;;4991165;28;20054;-81
2021/07/01 07:41:57;;;;;;;21.92;12.82;;;12.90;99.90;;;;;;4949398;28;20042;-79
2021/07/01 07:44:24;;;;;;;19.73;10.85;;;12.90;99.90;;;;;;4959290;28;20038;-82
2021/07/01 07:46:52;;;;;;;19.30;10.90;;;12.90;99.90;;;;;;4975367;28;20039;-81
2021/07/01 07:49:19;;;;;;;22.00;11.25;;;12.90;99.90;;;;;;4948200;28;20042;-81
2021/07/01 07:51:49;;;;;;;15.82;8.85;;;13.00;99.90;;;;;;4959899;28;20058;-79
2021/07/01 07:54:22;;;;;;;17.80;11.25;;;13.00;99.90;;;;;;4964155;28;20053;-80
2021/07/01 07:56:53;;;;;;;22.27;11.45;;;12.90;99.90;;;;;;4947997;28;20084;-81
2021/07/01 07:59:23;;;;;;;13.80;9.18;;;13.00;99.90;;;;;;4978017;28;20050;-80
2021/07/01 08:01:52;;;;;;;14.15;8.27;;;12.80;99.90;;;;;;4978659;28;20042;-82
2021/07/01 08:04:23;;;;;;;13.20;8.77;;;12.90;99.90;;;;;;4993794;28;20042;-82
2021/07/01 08:06:53;;;;;;;17.13;10.75;;;12.90;99.90;;;;;;4976307;28;20574;-81
2021/07/01 08:09:24;;;;;;;17.67;10.48;;;13.00;99.90;;;;;;4970958;28;20478;-82
2021/07/01 08:11:54;;;;;;;21.75;12.43;;;13.00;99.90;;;;;;4995475;28;20047;-81
2021/07/01 08:14:23;;;;;;;15.60;10.00;;;13.10;99.90;;;;;;4974907;28;20591;-82
2021/07/01 08:16:50;;;;;;;17.00;10.27;;;13.10;99.90;;;;;;4954906;28;20078;-81
2021/07/01 08:19:17;;;;;;;17.75;10.38;;;13.10;99.90;;;;;;4951953;28;20038;-81
2021/07/01 08:21:47;;;;;;;11.00;8.20;;;13.10;99.90;;;;;;4973820;28;20502;-81
2021/07/01 08:24:14;;;;;;;13.10;8.73;;;13.10;99.90;;;;;;4992291;28;20043;-83
2021/07/01 08:26:44;;;;;;;12.40;8.30;;;13.10;99.90;;;;;;4943241;28;20062;-82
2021/07/01 08:29:11;;;;;;;17.70;9.90;;;13.10;99.90;;;;;;4976901;28;20328;-81
2021/07/01 08:31:46;;;;;;;13.70;9.82;;;13.20;99.90;;;;;;4962576;28;20428;-80
2021/07/01 08:34:15;;;;;;;18.38;11.35;;;13.20;99.90;;;;;;4960904;28;20053;-81
2021/07/01 08:36:45;;;;;;;13.10;8.90;;;13.10;99.90;;;;;;4965180;28;20050;-79
2021/07/01 08:39:12;;;;;;;15.45;9.95;;;13.10;99.90;;;;;;4949133;28;20057;-80
2021/07/01 08:41:43;;;;;;;14.80;9.95;;;13.00;99.90;;;;;;5008246;28;20108;-84
2021/07/01 08:44:22;;;;;;;17.10;9.80;;;13.00;99.90;;;;;;4967980;28;20039;-81
2021/07/01 08:46:51;;;;;;;17.65;9.63;;;13.10;99.90;;;;;;4958388;28;20050;-80
2021/07/01 08:49:32;;;;;;;14.55;9.68;;;13.10;99.90;;;;;;4973218;28;20074;-81
2021/07/01 08:52:06;;;;;;;17.58;10.02;;;13.10;99.90;;;;;;5007090;28;20077;-80
2021/07/01 08:54:35;;;;;;;16.98;10.50;;;13.00;99.90;;;;;;4942923;28;20553;-81
2021/07/01 08:57:11;;;;;;;14.95;10.15;;;13.00;99.90;;;;;;4954632;28;20149;-81
2021/07/01 08:59:54;;;;;;;12.50;7.75;;;13.10;99.90;;;;;;5005981;28;20062;-83
2021/07/01 09:02:24;;;;;;;17.00;9.35;;;13.10;99.90;;;;;;4976422;28;20077;-82
2021/07/01 09:04:59;;;;;;;17.27;10.13;;;13.00;99.90;;;;;;4991031;28;20133;-81
2021/07/01 09:07:27;;;;;;;18.98;11.05;;;13.10;99.90;;;;;;4973919;28;20124;-81
2021/07/01 09:10:01;;;;;;;22.33;11.57;;;13.00;99.90;;;;;;4973457;28;20102;-80
2021/07/01 09:12:29;;;;;;;22.25;14.02;;;12.90;99.90;;;;;;4989497;28;20047;-82
2021/07/01 09:15:10;;;;;;;29.27;16.63;;;12.90;99.90;;;;;;4990618;28;20145;-80
2021/07/01 09:17:38;;;;;;;25.25;15.07;;;12.90;99.90;;;;;;4961399;28;20517;-81
2021/07/01 09:20:08;;;;;;;28.90;16.67;;;12.90;99.90;;;;;;4957308;28;20548;-80
2021/07/01 09:22:35;;;;;;;29.00;16.30;;;12.90;99.90;;;;;;4993195;28;20061;-81
2021/07/01 09:25:04;;;;;;;32.95;18.02;;;12.90;99.90;;;;;;4958778;28;20077;-80
2021/07/01 09:27:31;;;;;;;28.05;16.00;;;12.80;99.90;;;;;;4973226;28;20050;-81
2021/07/01 09:30:01;;;;;;;32.47;15.93;;;12.90;99.90;;;;;;4946951;28;20125;-83
2021/07/01 09:32:30;;;;;;;30.20;17.40;;;12.80;99.90;;;;;;4960194;28;20574;-81
2021/07/01 09:34:57;;;;;;;38.42;19.27;;;12.80;99.90;;;;;;4972982;28;20057;-81
2021/07/01 09:37:43;;;;;;;38.33;20.13;;;12.80;99.90;;;;;;4982744;28;20392;-82
2021/07/01 09:40:14;;;;;;;34.78;19.65;;;13.00;99.90;;;;;;4951063;28;20122;-82
2021/07/01 09:42:42;;;;;;;36.95;19.55;;;12.90;99.90;;;;;;5003418;28;20425;-80
2021/07/01 09:45:15;;;;;;;36.05;19.45;;;13.00;99.90;;;;;;4990321;28;20429;-82
2021/07/01 09:47:44;;;;;;;36.47;19.60;;;13.00;99.90;;;;;;4982256;28;20049;-82
2021/07/01 09:50:12;;;;;;;30.23;18.00;;;13.00;99.90;;;;;;4998975;28;20231;-83
2021/07/01 09:52:44;;;;;;;36.67;21.13;;;13.00;99.90;;;;;;4967932;28;20124;-81
2021/07/01 09:55:13;;;;;;;36.17;20.02;;;13.10;99.90;;;;;;4949870;28;20042;-82
2021/07/01 09:57:44;;;;;;;38.55;21.50;;;13.10;99.90;;;;;;4993836;28;20054;-83
2021/07/01 10:00:13;;;;;;;39.10;21.98;;;13.10;99.90;;;;;;4970439;28;20080;-80
2021/07/01 10:02:40;;;;;;;33.00;19.33;;;13.10;99.90;;;;;;4987597;28;20053;-82
2021/07/01 10:05:26;;;;;;;34.50;18.90;;;13.10;99.90;;;;;;4963762;28;20042;-80
2021/07/01 10:07:53;;;;;;;43.90;23.25;;;13.00;99.90;;;;;;4964414;28;20181;-79
2021/07/01 10:10:21;;;;;;;47.58;24.90;;;13.10;99.90;;;;;;4948519;28;20129;-82
2021/07/01 10:12:58;;;;;;;47.00;23.40;;;13.20;99.90;;;;;;4970755;28;20057;-81
2021/07/01 10:15:28;;;;;;;;;;;13.20;99.90;;;;;;4959150;28;20505;-78
2021/07/01 10:18:02;;;;;;;40.05;20.15;;;13.20;99.90;;;;;;4981363;28;20489;-81
2021/07/01 10:20:48;;;;;;;35.95;20.70;;;13.10;99.90;;;;;;4965889;28;20394;-83
2021/07/01 10:23:26;;;;;;;43.63;22.35;;;13.10;99.90;;;;;;4951268;28;20446;-80
2021/07/01 10:25:58;;;;;;;47.40;24.77;;;13.00;99.90;;;;;;4980438;28;20043;-79
2021/07/01 10:28:27;;;;;;;56.88;29.92;;;12.90;99.90;;;;;;4966138;28;20286;-82
2021/07/01 10:30:58;;;;;;;62.15;30.67;;;13.00;99.90;;;;;;4959776;28;20045;-81
2021/07/01 10:33:30;;;;;;;53.25;28.77;;;12.90;99.90;;;;;;4992896;28;20433;-82
2021/07/01 10:36:02;;;;;;;44.83;24.55;;;12.90;99.90;;;;;;4978906;28;21356;-81
2021/07/01 10:38:43;;;;;;;46.10;26.38;;;12.90;99.90;;;;;;4965327;28;20042;-82
2021/07/01 10:41:12;;;;;;;52.58;27.15;;;12.90;99.90;;;;;;4964811;28;20046;-82
2021/07/01 10:43:45;;;;;;;46.60;23.48;;;12.90;99.90;;;;;;4980140;28;20049;-83
2021/07/01 10:46:12;;;;;;;50.92;28.02;;;13.00;99.90;;;;;;4952548;28;20038;-81
2021/07/01 10:48:40;;;;;;;46.50;26.63;;;13.10;99.90;;;;;;4945721;28;20047;-82
2021/07/01 10:51:13;;;;;;;52.85;27.67;;;13.00;99.90;;;;;;4961568;28;20042;-82
2021/07/01 10:53:42;;;;;;;52.08;28.85;;;13.10;99.90;;;;;;4993831;28;20054;-81
2021/07/01 10:56:16;;;;;;;38.67;23.38;;;13.10;99.90;;;;;;5009770;28;20125;-83
2021/07/01 10:58:44;;;;;;;48.95;28.35;;;13.10;99.90;;;;;;4977615;28;20567;-81
2021/07/01 11:01:33;;;;;;;49.35;26.65;;;13.00;99.90;;;;;;4966577;28;20139;-82
2021/07/01 11:04:15;;;;;;;39.78;23.98;;;13.10;99.90;;;;;;4961219;28;20058;-82
2021/07/01 11:06:44;;;;;;;48.08;25.30;;;13.10;99.90;;;;;;4975054;28;20061;-84
2021/07/01 11:09:13;;;;;;;36.50;21.77;;;13.10;99.90;;;;;;4945032;28;20066;-79
2021/07/01 11:11:41;;;;;;;38.70;22.10;;;13.20;99.90;;;;;;4992738;28;20073;-82
2021/07/01 11:14:11;;;;;;;53.38;26.67;;;13.20;99.90;;;;;;4968989;28;20046;-83
2021/07/01 11:16:43;;;;;;;38.35;21.10;;;13.20;99.90;;;;;;4956279;28;20061;-80
2021/07/01 11:19:19;;;;;;;48.47;26.10;;;13.20;99.90;;;;;;4958153;28;20495;-80
2021/07/01 11:21:50;;;;;;;;;;;13.10;99.90;;;;;;4976948;28;20612;-81
2021/07/01 11:24:23;;;;;;;36.85;22.35;;;13.20;99.90;;;;;;4979135;28;19922;-81
2021/07/01 11:27:02;;;;;;;32.70;19.00;;;13.40;99.90;;;;;;4976436;28;20097;-80
2021/07/01 11:29:47;;;;;;;34.70;21.98;;;13.20;99.90;;;;;;4979426;28;20062;-81
2021/07/01 11:32:17;;;;;;;36.75;22.20;;;13.20;99.90;;;;;;4962227;28;20046;-81
2021/07/01 11:34:49;;;;;;;22.83;15.40;;;13.40;99.90;;;;;;4962061;28;20074;-79
2021/07/01 11:37:38;;;;;;;23.63;16.38;;;13.30;99.90;;;;;;4991816;28;20064;-80
2021/07/01 11:40:18;;;;;;;23.40;15.45;;;13.30;99.90;;;;;;4962315;28;20062;-80
2021/07/01 11:42:46;;;;;;;26.85;17.90;;;13.50;99.90;;;;;;4978095;28;20073;-81
2021/07/01 11:45:13;;;;;;;32.30;18.95;;;13.60;99.90;;;;;;4966814;28;20050;-81
2021/07/01 11:47:45;;;;;;;25.38;16.30;;;13.60;99.90;;;;;;4990426;28;20027;-79
2021/07/01 11:50:14;;;;;;;25.30;14.65;;;13.60;99.90;;;;;;4991792;28;20050;-82
2021/07/01 11:52:44;;;;;;;18.70;13.52;;;13.50;99.90;;;;;;4982459;28;20042;-82
2021/07/01 11:55:12;;;;;;;23.13;14.18;;;13.50;99.90;;;;;;4959167;28;20070;-82
2021/07/01 11:57:39;;;;;;;21.30;14.57;;;13.40;99.90;;;;;;4957704;28;20145;-80
2021/07/01 12:00:07;;;;;;;19.45;13.18;;;13.50;99.90;;;;;;4994486;28;20050;-81
2021/07/01 12:02:43;;;;;;;;;;;13.50;99.90;;;;;;4978621;28;20038;-80
2021/07/01 12:05:13;;;;;;;16.95;11.70;;;13.50;99.90;;;;;;5001852;28;20443;-79
2021/07/01 12:07:43;;;;;;;12.95;9.25;;;13.50;99.90;;;;;;4957070;28;20084;-83
2021/07/01 12:10:21;;;;;;;10.07;7.93;;;13.50;99.90;;;;;;4995706;28;20113;-82
2021/07/01 12:12:50;;;;;;;10.80;8.27;;;13.50;99.90;;;;;;4976715;28;20069;-79
2021/07/01 12:15:22;;;;;;;16.45;11.55;;;13.50;99.90;;;;;;4956360;28;20530;-80
2021/07/01 12:17:51;;;;;;;18.30;11.93;;;13.50;99.90;;;;;;4993444;28;20050;-82
2021/07/01 12:20:56;;;;;;;15.30;10.15;;;13.60;99.90;;;;;;4958799;28;20046;-81
2021/07/01 12:23:25;;;;;;;16.45;10.80;;;13.60;99.90;;;;;;4964264;28;20077;-79
2021/07/01 12:25:55;;;;;;;14.00;9.82;;;13.50;99.90;;;;;;4975665;28;20420;-79
2021/07/01 12:28:26;;;;;;;18.30;12.57;;;13.40;99.90;;;;;;4976248;28;20187;-81
2021/07/01 12:31:09;;;;;;;16.00;11.02;;;13.40;99.90;;;;;;4976473;28;20074;-83
2021/07/01 12:33:46;;;;;;;19.25;13.35;;;13.50;99.90;;;;;;4976683;28;20093;-79
2021/07/01 12:36:34;;;;;;;19.35;12.55;;;13.50;99.90;;;;;;4969518;28;20058;-81
2021/07/01 12:39:12;;;;;;;23.45;14.52;;;13.50;99.90;;;;;;4965005;28;20053;-80
2021/07/01 12:41:52;;;;;;;21.25;13.82;;;13.60;99.90;;;;;;4976398;28;20054;-82
2021/07/01 12:44:30;;;;;;;17.85;12.20;;;13.60;99.90;;;;;;4965481;28;20053;-82
2021/07/01 12:46:59;;;;;;;23.60;14.73;;;13.50;99.90;;;;;;4971535;28;20140;-83
2021/07/01 12:49:33;;;;;;;21.45;14.65;;;13.40;99.90;;;;;;4961154;28;20034;-81
2021/07/01 12:52:13;;;;;;;21.47;14.90;;;13.50;99.90;;;;;;4983371;28;20042;-81
2021/07/01 12:54:40;;;;;;;17.95;13.63;;;13.50;99.90;;;;;;4997257;28;20296;-82
2021/07/01 12:57:15;;;;;;;11.80;9.40;;;13.60;99.90;;;;;;4978333;28;20057;-83